createdAt,value
2023-04-21T00:00:46.381Z,66.30
2023-04-21T00:01:48.740Z,66.30
2023-04-21T00:02:52.720Z,66.40
2023-04-21T00:03:56.399Z,66.40
2023-04-21T00:04:58.735Z,66.50
2023-04-21T00:06:01.591Z,66.50
2023-04-21T00:07:04.598Z,66.50
2023-04-21T00:08:06.821Z,66.50
2023-04-21T00:09:08.978Z,66.60
2023-04-21T00:10:11.983Z,66.60
2023-04-21T00:11:15.246Z,66.70
2023-04-21T00:12:17.437Z,66.60
2023-04-21T00:13:19.597Z,66.60
2023-04-21T00:14:21.771Z,66.50
2023-04-21T00:15:24.033Z,66.50
2023-04-21T00:16:26.153Z,66.50
2023-04-21T00:17:28.414Z,66.60
2023-04-21T00:18:32.074Z,66.70
2023-04-21T00:19:35.326Z,66.60
2023-04-21T00:20:37.531Z,66.70
2023-04-21T00:21:39.797Z,66.70
2023-04-21T00:22:41.979Z,66.70
2023-04-21T00:23:44.151Z,66.80
2023-04-21T00:24:46.304Z,66.70
2023-04-21T00:25:53.876Z,66.70
2023-04-21T00:26:56.018Z,66.80
2023-04-21T00:27:58.462Z,66.70
2023-04-21T00:29:00.787Z,66.70
2023-04-21T00:30:03.048Z,66.80
2023-04-21T00:31:05.402Z,66.90
2023-04-21T00:32:11.370Z,66.80
2023-04-21T00:33:13.624Z,66.80
2023-04-21T00:34:17.289Z,66.90
2023-04-21T00:35:21.031Z,66.80
2023-04-21T00:36:24.922Z,67.00
2023-04-21T00:37:27.283Z,67.00
2023-04-21T00:38:32.250Z,67.00
2023-04-21T00:39:34.653Z,67.00
2023-04-21T00:40:36.920Z,66.90
2023-04-21T00:41:40.182Z,67.00
2023-04-21T00:42:42.706Z,66.80
2023-04-21T00:44:03.429Z,66.90
2023-04-21T00:45:06.572Z,67.60
2023-04-21T00:46:08.729Z,66.80
2023-04-21T00:47:11.458Z,67.50
2023-04-21T00:48:15.533Z,67.00
2023-04-21T00:49:19.378Z,66.90
2023-04-21T00:50:21.752Z,66.80
2023-04-21T00:51:24.133Z,67.50
2023-04-21T00:52:27.213Z,67.00
2023-04-21T00:53:29.607Z,67.00
2023-04-21T00:54:32.664Z,66.80
2023-04-21T00:55:35.084Z,66.90
2023-04-21T00:56:37.295Z,66.90
2023-04-21T00:57:39.758Z,66.80
2023-04-21T00:58:43.065Z,66.70
2023-04-21T00:59:45.264Z,66.80
2023-04-21T01:00:56.616Z,66.80
2023-04-21T01:01:58.836Z,66.90
2023-04-21T01:03:02.073Z,66.80
2023-04-21T01:04:05.713Z,66.70
2023-04-21T01:05:10.732Z,66.70
2023-04-21T01:06:13.107Z,66.80
2023-04-21T01:07:16.556Z,66.70
2023-04-21T01:08:18.687Z,66.70
2023-04-21T01:09:23.127Z,66.80
2023-04-21T01:10:26.529Z,66.80
2023-04-21T01:11:28.919Z,66.90
2023-04-21T01:12:31.386Z,66.80
2023-04-21T01:13:33.920Z,67.00
2023-04-21T01:14:37.117Z,67.00
2023-04-21T01:15:39.422Z,67.30
2023-04-21T01:16:41.693Z,67.20
2023-04-21T01:17:45.586Z,67.30
2023-04-21T01:18:47.996Z,67.70
2023-04-21T01:19:56.566Z,67.90
2023-04-21T01:21:01.218Z,67.90
2023-04-21T01:22:06.708Z,68.10
2023-04-21T01:23:08.831Z,68.30
2023-04-21T01:24:11.986Z,68.40
2023-04-21T01:25:14.186Z,68.60
2023-04-21T01:26:18.881Z,68.70
2023-04-21T01:27:21.577Z,69.00
2023-04-21T01:28:24.564Z,69.00
2023-04-21T01:29:26.845Z,69.30
2023-04-21T01:30:29.109Z,69.30
2023-04-21T01:32:42.212Z,70.40
2023-04-21T01:33:45.271Z,69.60
2023-04-21T01:34:48.067Z,69.80
2023-04-21T01:35:50.376Z,70.10
2023-04-21T01:36:52.550Z,70.30
2023-04-21T01:37:56.189Z,70.70
2023-04-21T01:38:58.341Z,71.10
2023-04-21T01:40:05.186Z,71.30
2023-04-21T01:41:10.891Z,71.90
2023-04-21T01:42:13.544Z,72.30
2023-04-21T01:43:19.832Z,72.60
2023-04-21T01:44:22.469Z,73.00
2023-04-21T01:45:27.630Z,73.40
2023-04-21T01:46:34.423Z,73.70
2023-04-21T01:47:36.730Z,74.00
2023-04-21T01:48:39.519Z,74.20
2023-04-21T01:49:41.893Z,74.80
2023-04-21T01:50:44.171Z,75.10
2023-04-21T01:51:46.337Z,75.60
2023-04-21T01:52:48.477Z,76.20
2023-04-21T01:53:52.230Z,76.60
2023-04-21T01:54:56.621Z,76.90
2023-04-21T01:55:58.804Z,77.70
2023-04-21T01:57:01.996Z,78.10
2023-04-21T01:58:04.337Z,78.40
2023-04-21T01:59:06.508Z,78.70
2023-04-21T02:00:09.821Z,79.40
2023-04-21T02:01:12.120Z,79.90
2023-04-21T02:02:15.012Z,80.30
2023-04-21T02:03:19.256Z,80.40
2023-04-21T02:04:22.175Z,80.80
2023-04-21T02:05:28.255Z,81.30
2023-04-21T02:06:33.926Z,81.60
2023-04-21T02:07:36.175Z,82.00
2023-04-21T02:08:38.376Z,82.30
2023-04-21T02:09:42.690Z,82.70
2023-04-21T02:10:44.886Z,83.10
2023-04-21T02:11:47.577Z,83.40
2023-04-21T02:12:49.982Z,83.80
2023-04-21T02:13:52.931Z,84.00
2023-04-21T02:14:55.352Z,84.40
2023-04-21T02:16:06.176Z,84.90
2023-04-21T02:17:36.859Z,85.20
2023-04-21T02:18:40.075Z,85.50
2023-04-21T02:19:47.905Z,85.80
2023-04-21T02:20:50.278Z,86.00
2023-04-21T02:22:08.804Z,86.70
2023-04-21T02:23:14.122Z,87.20
2023-04-21T02:24:19.255Z,87.40
2023-04-21T02:25:26.153Z,87.70
2023-04-21T02:26:28.935Z,88.20
2023-04-21T02:27:31.206Z,88.50
2023-04-21T02:28:33.496Z,88.80
2023-04-21T02:29:35.806Z,89.30
2023-04-21T02:30:38.098Z,89.50
2023-04-21T02:31:54.156Z,89.80
2023-04-21T02:33:01.031Z,89.90
2023-04-21T02:34:03.740Z,90.00
2023-04-21T02:35:06.991Z,90.20
2023-04-21T02:36:09.325Z,90.40
2023-04-21T02:37:11.540Z,90.60
2023-04-21T02:38:13.750Z,90.70
2023-04-21T02:39:18.733Z,91.10
2023-04-21T02:40:36.648Z,91.10
2023-04-21T02:41:41.666Z,91.40
2023-04-21T02:42:44.436Z,91.40
2023-04-21T02:43:46.943Z,91.50
2023-04-21T02:44:49.376Z,91.70
2023-04-21T02:45:51.810Z,91.90
2023-04-21T02:46:57.150Z,92.20
2023-04-21T02:48:02.773Z,92.20
2023-04-21T02:49:05.259Z,92.40
2023-04-21T02:50:07.944Z,92.50
2023-04-21T02:51:15.774Z,92.80
2023-04-21T02:52:18.224Z,93.20
2023-04-21T02:53:20.709Z,92.90
2023-04-21T02:54:24.953Z,93.10
2023-04-21T02:55:28.957Z,93.30
2023-04-21T02:56:39.932Z,93.50
2023-04-21T02:57:45.191Z,93.70
2023-04-21T02:58:49.997Z,93.90
2023-04-21T02:59:54.176Z,94.00
2023-04-21T03:00:59.804Z,94.20
2023-04-21T03:02:02.823Z,94.40
2023-04-21T03:03:05.655Z,94.70
2023-04-21T03:04:09.564Z,94.90
2023-04-21T03:05:13.208Z,95.20
2023-04-21T03:06:15.516Z,95.30
2023-04-21T03:07:23.609Z,95.50
2023-04-21T03:08:26.043Z,95.80
2023-04-21T03:09:33.889Z,95.90
2023-04-21T03:10:39.251Z,96.20
2023-04-21T03:11:42.662Z,96.30
2023-04-21T03:12:45.252Z,96.40
2023-04-21T03:13:48.281Z,96.70
2023-04-21T03:14:50.820Z,97.00
2023-04-21T03:15:53.757Z,97.10
2023-04-21T03:16:59.837Z,97.40
2023-04-21T03:18:07.576Z,97.60
2023-04-21T03:19:09.932Z,97.90
2023-04-21T03:20:13.339Z,98.10
2023-04-21T03:21:18.556Z,98.30
2023-04-21T03:22:22.405Z,98.50
2023-04-21T03:23:30.018Z,98.80
2023-04-21T03:24:32.819Z,99.00
2023-04-21T03:25:35.015Z,99.10
2023-04-21T03:26:50.004Z,99.50
2023-04-21T03:27:52.118Z,99.70
2023-04-21T03:28:54.209Z,99.90
2023-04-21T03:29:56.310Z,99.90
2023-04-21T03:30:58.502Z,99.90
2023-04-21T03:32:06.527Z,99.90
2023-04-21T03:33:10.799Z,99.90
2023-04-21T03:34:13.153Z,99.90
2023-04-21T03:35:15.549Z,99.90
2023-04-21T03:36:18.507Z,99.90
2023-04-21T03:37:20.827Z,99.90
2023-04-21T03:38:23.192Z,99.90
2023-04-21T03:39:27.484Z,99.90
2023-04-21T03:40:32.117Z,99.90
2023-04-21T03:41:34.407Z,99.90
2023-04-21T03:42:39.454Z,99.90
2023-04-21T03:43:44.694Z,99.90
2023-04-21T03:44:47.348Z,99.90
2023-04-21T03:45:51.980Z,99.90
2023-04-21T03:46:56.164Z,99.90
2023-04-21T03:48:00.504Z,99.90
2023-04-21T03:49:03.864Z,99.90
2023-04-21T03:50:10.508Z,99.90
2023-04-21T03:51:13.488Z,99.90
2023-04-21T03:52:16.061Z,99.90
2023-04-21T03:53:20.716Z,99.90
2023-04-21T03:54:22.958Z,99.90
2023-04-21T03:55:27.899Z,99.90
2023-04-21T03:56:31.128Z,99.90
2023-04-21T03:57:33.966Z,99.90
2023-04-21T03:58:37.750Z,99.90
2023-04-21T03:59:42.861Z,99.90
2023-04-21T04:00:45.309Z,99.90
2023-04-21T04:01:47.531Z,99.90
2023-04-21T04:02:49.906Z,99.90
2023-04-21T04:03:52.413Z,99.90
2023-04-21T04:04:54.849Z,99.90
2023-04-21T04:05:57.308Z,99.90
2023-04-21T04:06:59.796Z,99.90
2023-04-21T04:08:02.047Z,99.90
2023-04-21T04:09:04.709Z,99.90
2023-04-21T04:10:07.161Z,99.90
2023-04-21T04:11:09.295Z,99.90
2023-04-21T04:12:11.903Z,99.90
2023-04-21T04:13:14.386Z,99.90
2023-04-21T04:14:17.919Z,99.90
2023-04-21T04:15:20.270Z,99.90
2023-04-21T04:16:22.571Z,99.90
2023-04-21T04:17:25.803Z,99.90
2023-04-21T04:18:28.207Z,99.90
2023-04-21T04:19:31.773Z,99.90
2023-04-21T04:20:33.954Z,99.90
2023-04-21T04:21:36.458Z,99.90
2023-04-21T04:22:39.042Z,99.90
2023-04-21T04:23:41.229Z,99.90
2023-04-21T04:24:45.168Z,99.90
2023-04-21T04:25:47.990Z,99.90
2023-04-21T04:26:50.233Z,99.90
2023-04-21T04:27:52.314Z,99.90
2023-04-21T04:28:56.413Z,99.90
2023-04-21T04:30:00.208Z,99.90
2023-04-21T04:31:03.251Z,99.90
2023-04-21T04:32:06.727Z,99.90
2023-04-21T04:33:12.065Z,99.90
2023-04-21T04:34:15.711Z,99.90
2023-04-21T04:35:18.009Z,99.90
2023-04-21T04:36:20.264Z,99.90
2023-04-21T04:37:22.520Z,99.90
2023-04-21T04:38:24.701Z,99.90
2023-04-21T04:39:26.791Z,99.90
2023-04-21T04:40:30.338Z,99.90
2023-04-21T04:41:33.986Z,99.90
2023-04-21T04:42:37.374Z,99.90
2023-04-21T04:43:39.507Z,99.90
2023-04-21T04:44:41.733Z,99.90
2023-04-21T04:45:45.507Z,99.90
2023-04-21T04:46:47.784Z,99.90
2023-04-21T04:47:50.257Z,99.90
2023-04-21T04:48:53.235Z,99.90
2023-04-21T04:49:55.725Z,99.90
2023-04-21T04:50:57.997Z,99.90
2023-04-21T04:52:03.029Z,99.90
2023-04-21T04:53:05.292Z,99.90
2023-04-21T04:54:07.471Z,99.90
2023-04-21T04:55:10.999Z,99.90
2023-04-21T04:56:13.264Z,99.90
2023-04-21T04:57:16.368Z,99.90
2023-04-21T04:58:18.764Z,99.90
2023-04-21T04:59:21.045Z,99.90
2023-04-21T05:00:23.385Z,99.90
2023-04-21T05:01:30.914Z,99.90
2023-04-21T05:02:33.523Z,99.90
2023-04-21T05:03:35.929Z,99.90
2023-04-21T05:04:39.238Z,99.90
2023-04-21T05:05:41.483Z,99.90
2023-04-21T05:06:43.696Z,99.90
2023-04-21T05:07:46.001Z,99.90
2023-04-21T05:08:48.305Z,99.90
2023-04-21T05:09:50.444Z,99.90
2023-04-21T05:10:52.536Z,99.90
2023-04-21T05:11:54.640Z,99.90
2023-04-21T05:12:56.910Z,99.90
2023-04-21T05:13:59.152Z,99.90
2023-04-21T05:15:01.521Z,99.90
2023-04-21T05:16:03.821Z,99.90
2023-04-21T05:17:07.560Z,99.90
2023-04-21T05:18:09.793Z,99.90
2023-04-21T05:19:12.087Z,99.90
2023-04-21T05:20:14.314Z,99.90
2023-04-21T05:21:24.026Z,99.90
2023-04-21T05:22:26.456Z,99.90
2023-04-21T05:23:28.744Z,99.90
2023-04-21T05:24:30.989Z,99.90
2023-04-21T05:25:33.181Z,99.90
2023-04-21T05:26:35.411Z,99.90
2023-04-21T05:27:37.592Z,99.90
2023-04-21T05:28:39.836Z,99.90
2023-04-21T05:29:42.080Z,99.90
2023-04-21T05:30:44.201Z,99.90
2023-04-21T05:31:46.373Z,99.90
2023-04-21T05:32:49.923Z,99.90
2023-04-21T05:33:52.238Z,99.80
2023-04-21T05:34:54.417Z,99.50
2023-04-21T05:35:56.524Z,99.30
2023-04-21T05:36:58.711Z,99.10
2023-04-21T05:38:00.875Z,98.90
2023-04-21T05:39:06.434Z,98.70
2023-04-21T05:40:09.211Z,98.70
2023-04-21T05:41:13.139Z,98.60
2023-04-21T05:42:15.409Z,98.50
2023-04-21T05:43:18.078Z,98.40
2023-04-21T05:44:20.412Z,98.20
2023-04-21T05:45:22.943Z,98.10
2023-04-21T05:46:25.180Z,97.90
2023-04-21T05:47:27.418Z,97.80
2023-04-21T05:48:30.939Z,97.60
2023-04-21T05:49:33.556Z,97.30
2023-04-21T05:50:36.200Z,97.00
2023-04-21T05:51:38.405Z,96.60
2023-04-21T05:52:40.675Z,96.50
2023-04-21T05:53:44.188Z,96.30
2023-04-21T05:54:46.412Z,96.10
2023-04-21T05:55:48.683Z,95.80
2023-04-21T05:56:50.841Z,95.40
2023-04-21T05:57:53.022Z,95.00
2023-04-21T05:58:55.155Z,94.50
2023-04-21T05:59:57.368Z,94.10
2023-04-21T06:00:59.637Z,93.80
2023-04-21T06:02:02.534Z,93.60
2023-04-21T06:03:04.970Z,93.30
2023-04-21T06:04:08.862Z,93.20
2023-04-21T06:05:11.465Z,92.90
2023-04-21T06:06:15.196Z,92.60
2023-04-21T06:07:18.905Z,92.50
2023-04-21T06:08:21.236Z,92.30
2023-04-21T06:09:23.453Z,92.20
2023-04-21T06:10:26.059Z,92.00
2023-04-21T06:11:28.296Z,92.00
2023-04-21T06:12:30.601Z,91.70
2023-04-21T06:13:32.722Z,91.20
2023-04-21T06:14:35.152Z,91.00
2023-04-21T06:15:37.342Z,90.60
2023-04-21T06:16:39.646Z,90.30
2023-04-21T06:17:41.897Z,90.00
2023-04-21T06:18:47.480Z,89.80
2023-04-21T06:19:53.356Z,88.90
2023-04-21T06:20:56.072Z,88.10
2023-04-21T06:21:58.218Z,87.90
2023-04-21T06:23:00.426Z,87.70
2023-04-21T06:24:02.625Z,87.30
2023-04-21T06:25:05.712Z,86.80
2023-04-21T06:26:08.230Z,86.90
2023-04-21T06:27:12.144Z,87.40
2023-04-21T06:28:18.292Z,87.20
2023-04-21T06:29:21.107Z,86.50
2023-04-21T06:30:23.562Z,86.30
2023-04-21T06:31:27.223Z,86.60
2023-04-21T06:32:29.644Z,87.00
2023-04-21T06:33:31.967Z,87.10
2023-04-21T06:34:37.340Z,87.20
2023-04-21T06:35:40.894Z,87.50
2023-04-21T06:36:43.116Z,87.70
2023-04-21T06:37:45.258Z,87.30
2023-04-21T06:38:47.541Z,86.60
2023-04-21T06:39:49.674Z,85.60
2023-04-21T06:40:52.170Z,84.20
2023-04-21T06:41:55.421Z,83.60
2023-04-21T06:42:57.611Z,83.50
2023-04-21T06:43:59.713Z,83.40
2023-04-21T06:45:02.722Z,83.10
2023-04-21T06:46:04.957Z,82.60
2023-04-21T06:47:07.114Z,82.20
2023-04-21T06:48:09.351Z,82.10
2023-04-21T06:49:11.965Z,81.90
2023-04-21T06:50:14.120Z,81.80
2023-04-21T06:51:17.636Z,81.40
2023-04-21T06:52:20.293Z,80.80
2023-04-21T06:53:22.496Z,79.80
2023-04-21T06:54:24.863Z,79.20
2023-04-21T06:55:27.155Z,78.40
2023-04-21T06:56:29.684Z,77.90
2023-04-21T06:57:31.819Z,77.10
2023-04-21T06:58:33.974Z,76.20
2023-04-21T06:59:36.437Z,75.80
2023-04-21T07:00:38.861Z,75.60
2023-04-21T07:01:41.002Z,75.20
2023-04-21T07:02:43.798Z,74.60
2023-04-21T07:03:46.724Z,74.00
2023-04-21T07:04:49.033Z,73.80
2023-04-21T07:05:51.395Z,73.30
2023-04-21T07:06:54.892Z,73.60
2023-04-21T07:07:59.901Z,74.00
2023-04-21T07:09:02.085Z,74.20
2023-04-21T07:10:04.618Z,74.10
2023-04-21T07:11:06.848Z,74.20
2023-04-21T07:12:09.049Z,73.50
2023-04-21T07:13:11.406Z,72.70
2023-04-21T07:14:13.721Z,72.00
2023-04-21T07:15:16.160Z,71.70
2023-04-21T07:16:18.309Z,71.70
2023-04-21T07:17:20.583Z,71.70
2023-04-21T07:18:22.733Z,71.80
2023-04-21T07:19:24.837Z,72.10
2023-04-21T07:20:27.256Z,72.40
2023-04-21T07:21:31.987Z,72.20
2023-04-21T07:22:36.725Z,72.50
2023-04-21T07:23:38.875Z,72.90
2023-04-21T07:24:43.918Z,72.60
2023-04-21T07:25:46.112Z,72.30
2023-04-21T07:26:48.269Z,72.50
2023-04-21T07:27:50.610Z,71.80
2023-04-21T07:28:52.974Z,71.90
2023-04-21T07:29:55.087Z,71.60
2023-04-21T07:30:57.311Z,71.70
2023-04-21T07:31:59.541Z,71.60
2023-04-21T07:33:02.614Z,71.30
2023-04-21T07:34:04.988Z,70.90
2023-04-21T07:35:07.964Z,70.70
2023-04-21T07:36:10.722Z,71.20
2023-04-21T07:37:12.821Z,71.40
2023-04-21T07:38:16.703Z,71.80
2023-04-21T07:39:19.252Z,71.80
2023-04-21T07:40:21.670Z,72.20
2023-04-21T07:41:23.888Z,72.50
2023-04-21T07:42:26.987Z,72.90
2023-04-21T07:43:31.093Z,73.20
2023-04-21T07:44:33.175Z,72.60
2023-04-21T07:45:35.414Z,72.60
2023-04-21T07:46:37.539Z,72.80
2023-04-21T07:47:39.807Z,73.00
2023-04-21T07:48:41.947Z,73.20
2023-04-21T07:49:44.094Z,73.40
2023-04-21T07:50:46.223Z,74.00
2023-04-21T07:51:48.321Z,74.40
2023-04-21T07:52:50.589Z,74.30
2023-04-21T07:53:54.414Z,74.30
2023-04-21T07:54:56.723Z,74.30
2023-04-21T07:55:58.874Z,74.40
2023-04-21T07:57:02.654Z,74.60
2023-04-21T07:58:05.007Z,74.30
2023-04-21T07:59:07.231Z,74.20
2023-04-21T08:00:10.849Z,74.20
2023-04-21T08:01:13.126Z,74.20
2023-04-21T08:02:15.373Z,74.30
2023-04-21T08:03:17.718Z,74.40
2023-04-21T08:04:20.243Z,74.60
2023-04-21T08:05:22.759Z,75.10
2023-04-21T08:06:25.140Z,75.90
2023-04-21T08:07:27.356Z,76.60
2023-04-21T08:08:31.496Z,77.00
2023-04-21T08:09:35.999Z,77.80
2023-04-21T08:10:38.265Z,77.40
2023-04-21T08:11:40.617Z,77.50
2023-04-21T08:12:42.684Z,77.70
2023-04-21T08:13:44.825Z,77.90
2023-04-21T08:14:46.942Z,78.00
2023-04-21T08:15:49.264Z,77.90
2023-04-21T08:16:51.600Z,77.50
2023-04-21T08:17:55.013Z,77.50
2023-04-21T08:18:57.206Z,77.70
2023-04-21T08:20:02.414Z,77.70
2023-04-21T08:21:05.004Z,77.10
2023-04-21T08:22:07.209Z,76.00
2023-04-21T08:23:09.417Z,75.00
2023-04-21T08:24:12.383Z,73.70
2023-04-21T08:25:16.072Z,73.20
2023-04-21T08:26:21.028Z,73.10
2023-04-21T08:27:23.223Z,73.10
2023-04-21T08:28:25.483Z,72.90
2023-04-21T08:29:27.766Z,73.30
2023-04-21T08:30:30.227Z,73.70
2023-04-21T08:31:33.997Z,73.70
2023-04-21T08:32:36.323Z,72.80
2023-04-21T08:33:46.753Z,72.80
2023-04-21T08:34:56.533Z,72.20
2023-04-21T08:36:05.421Z,71.30
2023-04-21T08:37:10.024Z,71.20
2023-04-21T08:38:12.290Z,70.60
2023-04-21T08:39:16.351Z,70.80
2023-04-21T08:40:20.366Z,70.70
2023-04-21T08:41:24.555Z,70.90
2023-04-21T08:42:26.681Z,72.00
2023-04-21T08:43:29.525Z,72.40
2023-04-21T08:44:33.208Z,72.40
2023-04-21T08:45:36.027Z,71.80
2023-04-21T08:46:39.045Z,71.40
2023-04-21T08:47:41.861Z,71.40
2023-04-21T08:48:46.714Z,70.80
2023-04-21T08:49:51.651Z,70.60
2023-04-21T08:50:54.103Z,71.60
2023-04-21T08:51:56.282Z,71.80
2023-04-21T08:52:59.000Z,71.20
2023-04-21T08:54:04.039Z,72.00
2023-04-21T08:55:07.729Z,71.70
2023-04-21T08:56:11.980Z,71.50
2023-04-21T08:57:15.822Z,71.50
2023-04-21T08:58:18.561Z,71.70
2023-04-21T08:59:21.467Z,71.70
2023-04-21T09:00:24.046Z,70.90
2023-04-21T09:01:26.576Z,71.00
2023-04-21T09:02:30.899Z,70.90
2023-04-21T09:03:36.105Z,71.10
2023-04-21T09:04:55.844Z,71.20
2023-04-21T09:05:59.278Z,71.10
2023-04-21T09:07:01.756Z,71.10
2023-04-21T09:08:11.685Z,71.20
2023-04-21T09:09:13.869Z,70.90
2023-04-21T09:10:22.032Z,70.40
2023-04-21T09:11:25.753Z,70.60
2023-04-21T09:12:29.315Z,71.10
2023-04-21T09:13:32.910Z,71.30
2023-04-21T09:14:35.639Z,71.00
2023-04-21T09:15:41.020Z,70.60
2023-04-21T09:16:43.962Z,70.30
2023-04-21T09:17:46.590Z,70.10
2023-04-21T09:18:49.756Z,70.00
2023-04-21T09:19:52.422Z,69.80
2023-04-21T09:21:06.770Z,69.30
2023-04-21T09:22:08.935Z,68.90
2023-04-21T09:23:11.839Z,69.00
2023-04-21T09:24:14.012Z,69.20
2023-04-21T09:25:17.849Z,69.30
2023-04-21T09:26:24.265Z,69.30
2023-04-21T09:27:28.913Z,69.00
2023-04-21T09:28:34.242Z,68.80
2023-04-21T09:29:36.401Z,69.00
2023-04-21T09:30:39.271Z,69.00
2023-04-21T09:31:44.418Z,69.40
2023-04-21T09:32:46.823Z,69.10
2023-04-21T09:33:58.591Z,68.70
2023-04-21T09:35:02.816Z,68.70
2023-04-21T09:36:06.103Z,68.30
2023-04-21T09:37:10.985Z,68.10
2023-04-21T09:38:13.409Z,67.90
2023-04-21T09:39:29.101Z,67.60
2023-04-21T09:40:37.926Z,67.00
2023-04-21T09:41:40.378Z,66.60
2023-04-21T09:42:44.933Z,66.00
2023-04-21T09:43:47.858Z,66.20
2023-04-21T09:44:55.367Z,65.90
2023-04-21T09:46:09.223Z,65.60
2023-04-21T09:47:14.725Z,65.90
2023-04-21T09:48:20.612Z,65.80
2023-04-21T09:49:25.992Z,65.30
2023-04-21T09:51:11.383Z,65.00
2023-04-21T09:52:17.500Z,65.50
2023-04-21T09:53:24.570Z,65.00
2023-04-21T09:54:31.714Z,64.80
2023-04-21T09:55:35.360Z,65.00
2023-04-21T09:56:42.113Z,65.10
2023-04-21T09:57:48.673Z,65.00
2023-04-21T09:58:54.331Z,64.90
2023-04-21T10:00:01.331Z,65.50
2023-04-21T10:01:05.028Z,65.50
2023-04-21T10:02:13.069Z,65.40
2023-04-21T10:03:18.318Z,65.40
2023-04-21T10:04:22.903Z,65.30
2023-04-21T10:05:26.101Z,64.50
2023-04-21T10:06:29.081Z,64.50
2023-04-21T10:07:31.358Z,64.40
2023-04-21T10:08:34.675Z,64.10
2023-04-21T10:09:43.256Z,63.40
2023-04-21T10:10:46.706Z,63.30
2023-04-21T10:11:49.097Z,63.10
2023-04-21T10:12:55.497Z,63.20
2023-04-21T10:13:57.765Z,63.60
2023-04-21T10:15:04.393Z,63.20
2023-04-21T10:16:10.002Z,61.90
2023-04-21T10:17:12.300Z,62.10
2023-04-21T10:18:18.734Z,62.00
2023-04-21T10:19:25.711Z,61.90
2023-04-21T10:20:29.682Z,61.60
2023-04-21T10:21:36.978Z,61.00
2023-04-21T10:22:39.999Z,60.80
2023-04-21T10:23:43.629Z,60.80
2023-04-21T10:24:47.348Z,60.60
2023-04-21T10:25:49.564Z,59.90
2023-04-21T10:26:54.582Z,59.90
2023-04-21T10:27:58.926Z,60.70
2023-04-21T10:29:02.599Z,61.10
2023-04-21T10:30:20.126Z,61.10
2023-04-21T10:31:31.926Z,60.70
2023-04-21T10:32:41.817Z,60.80
2023-04-21T10:34:20.663Z,59.60
2023-04-21T10:35:24.466Z,59.60
2023-04-21T10:36:28.000Z,59.70
2023-04-21T10:37:31.878Z,59.60
2023-04-21T10:38:35.023Z,59.80
2023-04-21T10:39:52.428Z,60.70
2023-04-21T10:40:54.560Z,59.70
2023-04-21T10:41:58.498Z,59.70
2023-04-21T10:43:03.346Z,59.10
2023-04-21T10:44:24.349Z,59.30
2023-04-21T10:45:26.646Z,58.90
2023-04-21T10:46:33.416Z,58.90
2023-04-21T10:47:44.575Z,59.00
2023-04-21T10:48:52.960Z,59.00
2023-04-21T10:49:57.766Z,58.70
2023-04-21T10:51:00.322Z,58.40
2023-04-21T10:52:07.306Z,57.10
2023-04-21T10:53:11.121Z,54.80
2023-04-21T10:54:14.747Z,52.30
2023-04-21T10:55:17.215Z,49.90
2023-04-21T10:56:20.912Z,47.70
2023-04-21T10:57:23.125Z,46.30
2023-04-21T10:58:26.867Z,44.90
2023-04-21T10:59:29.042Z,43.70
2023-04-21T11:00:31.875Z,43.40
2023-04-21T11:01:34.104Z,43.20
2023-04-21T11:02:39.816Z,42.40
2023-04-21T11:03:44.223Z,41.50
2023-04-21T11:04:51.575Z,40.40
2023-04-21T11:05:54.025Z,39.40
2023-04-21T11:07:08.176Z,39.40
2023-04-21T11:08:13.010Z,38.90
2023-04-21T11:09:16.621Z,38.60
2023-04-21T11:10:18.880Z,38.20
2023-04-21T11:11:24.117Z,37.80
2023-04-21T11:12:31.244Z,37.40
2023-04-21T11:13:35.110Z,36.90
2023-04-21T11:14:40.485Z,36.80
2023-04-21T11:15:42.648Z,37.10
2023-04-21T11:16:45.015Z,36.90
2023-04-21T11:17:48.082Z,37.10
2023-04-21T11:18:51.215Z,37.20
2023-04-21T11:19:54.789Z,37.50
2023-04-21T11:21:10.512Z,36.80
2023-04-21T11:22:12.934Z,35.90
2023-04-21T11:23:18.875Z,36.20
2023-04-21T11:24:21.961Z,35.80
2023-04-21T11:25:24.457Z,35.60
2023-04-21T11:26:33.825Z,35.50
2023-04-21T11:27:36.035Z,35.00
2023-04-21T11:28:41.533Z,35.30
2023-04-21T11:29:45.799Z,35.50
2023-04-21T11:30:48.349Z,35.40
2023-04-21T11:31:51.374Z,35.10
2023-04-21T11:32:55.014Z,34.90
2023-04-21T11:33:58.627Z,34.70
2023-04-21T11:35:00.762Z,35.00
2023-04-21T11:36:05.771Z,34.80
2023-04-21T11:37:08.453Z,35.00
2023-04-21T11:38:12.897Z,34.40
2023-04-21T11:39:17.265Z,34.20
2023-04-21T11:40:20.639Z,33.90
2023-04-21T11:41:23.627Z,33.50
2023-04-21T11:42:26.007Z,33.50
2023-04-21T11:43:28.233Z,33.30
2023-04-21T11:44:33.934Z,33.20
2023-04-21T11:45:36.648Z,33.20
2023-04-21T11:46:45.228Z,32.90
2023-04-21T11:47:48.594Z,33.10
2023-04-21T11:48:59.246Z,33.80
2023-04-21T11:50:02.314Z,33.60
2023-04-21T11:51:05.325Z,34.00
2023-04-21T11:52:07.701Z,34.30
2023-04-21T11:53:09.994Z,34.40
2023-04-21T11:54:13.859Z,34.20
2023-04-21T11:55:18.791Z,33.80
2023-04-21T11:56:25.059Z,33.40
2023-04-21T11:57:28.434Z,33.20
2023-04-21T11:58:31.431Z,33.30
2023-04-21T11:59:34.968Z,33.00
2023-04-21T12:00:37.172Z,32.60
2023-04-21T12:01:46.516Z,32.60
2023-04-21T12:02:55.833Z,32.20
2023-04-21T12:03:58.264Z,31.90
2023-04-21T12:05:03.137Z,31.60
2023-04-21T12:06:06.747Z,31.30
2023-04-21T12:07:08.900Z,30.90
2023-04-21T12:08:15.262Z,30.30
2023-04-21T12:09:20.034Z,30.20
2023-04-21T12:10:23.265Z,30.10
2023-04-21T12:11:28.043Z,30.00
2023-04-21T12:12:30.615Z,30.30
2023-04-21T12:13:36.438Z,30.70
2023-04-21T12:14:43.664Z,31.80
2023-04-21T12:15:46.214Z,32.70
2023-04-21T12:16:51.648Z,33.60
2023-04-21T12:17:56.620Z,34.40
2023-04-21T12:19:04.415Z,34.80
2023-04-21T12:20:08.380Z,35.50
2023-04-21T12:21:14.555Z,36.00
2023-04-21T12:22:23.117Z,36.10
2023-04-21T12:23:28.427Z,36.40
2023-04-21T12:24:30.722Z,36.70
2023-04-21T12:25:33.178Z,37.40
2023-04-21T12:26:35.504Z,37.90
2023-04-21T12:27:37.918Z,38.20
2023-04-21T12:28:40.217Z,38.40
2023-04-21T12:29:44.071Z,38.60
2023-04-21T12:30:48.353Z,38.50
2023-04-21T12:31:52.076Z,38.70
2023-04-21T12:32:55.878Z,38.70
2023-04-21T12:33:58.311Z,38.80
2023-04-21T12:35:01.854Z,38.40
2023-04-21T12:36:04.867Z,37.90
2023-04-21T12:37:07.722Z,37.60
2023-04-21T12:38:12.088Z,37.60
2023-04-21T12:39:17.436Z,37.70
2023-04-21T12:40:22.681Z,38.20
2023-04-21T12:41:25.038Z,38.80
2023-04-21T12:42:27.305Z,38.60
2023-04-21T12:43:30.767Z,38.10
2023-04-21T12:44:33.082Z,37.10
2023-04-21T12:45:36.894Z,35.70
2023-04-21T12:46:39.727Z,35.00
2023-04-21T12:47:45.554Z,34.30
2023-04-21T12:48:49.698Z,33.60
2023-04-21T12:49:52.997Z,33.10
2023-04-21T12:50:55.418Z,32.80
2023-04-21T12:51:58.026Z,32.40
2023-04-21T12:53:00.613Z,32.30
2023-04-21T12:54:03.564Z,32.20
2023-04-21T12:55:06.541Z,32.50
2023-04-21T12:56:13.452Z,33.10
2023-04-21T12:57:18.276Z,33.40
2023-04-21T12:58:20.905Z,33.40
2023-04-21T12:59:26.039Z,33.40
2023-04-21T13:00:30.460Z,33.20
2023-04-21T13:01:34.961Z,33.40
2023-04-21T13:02:38.331Z,33.50
2023-04-21T13:03:42.876Z,33.90
2023-04-21T13:04:45.495Z,33.60
2023-04-21T13:05:47.990Z,33.60
2023-04-21T13:06:51.667Z,33.80
2023-04-21T13:07:55.346Z,34.10
2023-04-21T13:09:00.754Z,34.20
2023-04-21T13:10:05.022Z,34.50
2023-04-21T13:11:08.882Z,34.80
2023-04-21T13:12:12.058Z,34.30
2023-04-21T13:13:15.614Z,35.10
2023-04-21T13:14:18.782Z,34.60
2023-04-21T13:15:21.546Z,35.20
2023-04-21T13:16:24.010Z,35.70
2023-04-21T13:17:27.875Z,36.00
2023-04-21T13:18:30.102Z,35.90
2023-04-21T13:19:32.495Z,36.20
2023-04-21T13:20:34.813Z,36.20
2023-04-21T13:21:36.942Z,35.90
2023-04-21T13:22:39.046Z,35.70
2023-04-21T13:23:41.478Z,35.80
2023-04-21T13:24:43.654Z,36.20
2023-04-21T13:25:46.451Z,36.90
2023-04-21T13:26:48.726Z,37.00
2023-04-21T13:27:53.262Z,36.50
2023-04-21T13:28:55.613Z,35.90
2023-04-21T13:29:57.845Z,36.00
2023-04-21T13:31:00.109Z,36.60
2023-04-21T13:32:02.601Z,36.80
2023-04-21T13:33:06.177Z,37.00
2023-04-21T13:34:08.456Z,37.00
2023-04-21T13:35:10.903Z,37.10
2023-04-21T13:36:13.279Z,37.10
2023-04-21T13:37:17.022Z,37.10
2023-04-21T13:38:20.746Z,37.20
2023-04-21T13:39:22.955Z,37.00
2023-04-21T13:40:25.187Z,37.00
2023-04-21T13:41:30.635Z,36.90
2023-04-21T13:42:33.804Z,36.90
2023-04-21T13:43:36.299Z,36.70